createdAt,value
2018-02-13T00:00:06.962Z,11.13
2018-02-13T00:02:35.339Z,14.47
2018-02-13T00:05:02.928Z,13.87
2018-02-13T00:07:30.554Z,11.00
2018-02-13T00:09:59.226Z,13.37
2018-02-13T00:12:26.904Z,9.30
2018-02-13T00:14:54.442Z,16.33
2018-02-13T00:17:22.106Z,16.17
2018-02-13T00:19:49.753Z,14.23
2018-02-13T00:22:17.406Z,17.03
2018-02-13T00:24:44.992Z,12.83
2018-02-13T00:27:19.428Z,17.63
2018-02-13T00:29:47.854Z,15.43
2018-02-13T00:32:15.488Z,15.20
2018-02-13T00:34:43.093Z,13.13
2018-02-13T00:37:10.723Z,14.20
2018-02-13T00:39:38.329Z,20.47
2018-02-13T00:42:06.001Z,14.67
2018-02-13T00:44:34.436Z,18.30
2018-02-13T00:47:02.081Z,14.47
2018-02-13T00:49:29.720Z,15.27
2018-02-13T00:51:57.365Z,13.03
2018-02-13T00:54:24.980Z,13.00
2018-02-13T00:56:52.564Z,13.40
2018-02-13T00:59:20.176Z,14.93
2018-02-13T01:01:47.779Z,14.53
2018-02-13T01:04:15.405Z,16.33
2018-02-13T01:06:43.078Z,16.73
2018-02-13T01:09:10.728Z,19.20
2018-02-13T01:11:39.249Z,19.30
2018-02-13T01:14:07.672Z,20.93
2018-02-13T01:16:35.241Z,19.63
2018-02-13T01:19:02.876Z,19.37
2018-02-13T01:21:31.317Z,21.07
2018-02-13T01:23:58.951Z,26.27
2018-02-13T01:26:27.303Z,22.37
2018-02-13T01:28:55.810Z,23.43
2018-02-13T01:31:23.568Z,21.10
2018-02-13T01:33:51.246Z,23.43
2018-02-13T01:36:18.893Z,24.67
2018-02-13T01:38:46.608Z,21.00
2018-02-13T01:41:14.217Z,30.47
2018-02-13T01:43:41.888Z,23.20
2018-02-13T01:46:09.640Z,24.27
2018-02-13T01:48:37.267Z,24.13
2018-02-13T01:51:05.676Z,21.17
2018-02-13T01:53:33.324Z,25.83
2018-02-13T01:56:00.943Z,25.03
2018-02-13T01:58:28.550Z,25.13
2018-02-13T02:00:56.206Z,22.30
2018-02-13T02:03:23.846Z,23.17
2018-02-13T02:05:52.231Z,27.73
2018-02-13T02:08:20.610Z,25.30
2018-02-13T02:10:49.128Z,21.70
2018-02-13T02:13:16.736Z,22.80
2018-02-13T02:15:45.131Z,24.57
2018-02-13T02:18:12.794Z,22.70
2018-02-13T02:20:41.197Z,24.97
2018-02-13T02:23:08.871Z,23.90
2018-02-13T02:25:36.552Z,28.77
2018-02-13T02:28:04.154Z,29.10
2018-02-13T02:30:32.586Z,28.30
2018-02-13T02:33:00.237Z,29.27
2018-02-13T02:35:27.892Z,29.63
2018-02-13T02:37:55.610Z,27.80
2018-02-13T02:40:23.252Z,31.03
2018-02-13T02:43:03.341Z,29.87
2018-02-13T02:45:30.951Z,29.43
2018-02-13T02:47:58.595Z,30.23
2018-02-13T02:50:26.261Z,26.80
2018-02-13T02:52:53.929Z,30.07
2018-02-13T02:55:21.572Z,34.83
2018-02-13T02:57:49.224Z,30.50
2018-02-13T03:00:40.121Z,28.30
2018-02-13T03:03:07.769Z,32.00
2018-02-13T03:05:35.373Z,33.30
2018-02-13T03:08:03.021Z,31.87
2018-02-13T03:10:30.618Z,35.97
2018-02-13T03:12:59.016Z,26.67
2018-02-13T03:15:27.470Z,26.13
2018-02-13T03:17:55.213Z,30.43
2018-02-13T03:20:22.857Z,32.33
2018-02-13T03:22:50.460Z,32.17
2018-02-13T03:25:18.114Z,28.40
2018-02-13T03:27:45.720Z,31.17
2018-02-13T03:30:13.360Z,30.93
2018-02-13T03:32:42.519Z,29.00
2018-02-13T03:35:10.201Z,30.13
2018-02-13T03:37:37.783Z,27.30
2018-02-13T03:40:05.378Z,31.43
2018-02-13T03:42:32.989Z,29.30
2018-02-13T03:45:01.424Z,27.70
2018-02-13T03:47:29.139Z,29.57
2018-02-13T03:49:56.762Z,31.80
2018-02-13T03:52:24.430Z,33.63
2018-02-13T03:54:52.086Z,28.37
2018-02-13T03:57:19.759Z,31.43
2018-02-13T03:59:48.273Z,30.83
2018-02-13T04:02:15.919Z,30.60
2018-02-13T04:04:44.350Z,31.53
2018-02-13T04:07:11.935Z,26.67
2018-02-13T04:09:39.558Z,28.70
2018-02-13T04:12:07.212Z,26.87
2018-02-13T04:14:34.812Z,30.00
2018-02-13T04:17:02.441Z,32.53
2018-02-13T04:19:30.031Z,27.47
2018-02-13T04:21:57.666Z,38.90
2018-02-13T04:24:25.335Z,28.00
2018-02-13T04:26:53.928Z,23.67
2018-02-13T04:29:21.549Z,32.93
2018-02-13T04:31:49.230Z,30.47
2018-02-13T04:34:16.844Z,31.73
2018-02-13T04:36:44.629Z,31.43
2018-02-13T04:39:12.203Z,36.47
2018-02-13T04:41:39.914Z,32.60
2018-02-13T04:44:07.566Z,32.90
2018-02-13T04:46:35.174Z,31.17
2018-02-13T04:49:02.843Z,26.50
2018-02-13T04:51:30.469Z,34.37
2018-02-13T04:53:58.860Z,26.17
2018-02-13T04:56:26.504Z,28.23
2018-02-13T04:58:54.203Z,25.10
2018-02-13T05:01:21.862Z,31.10
2018-02-13T05:03:49.467Z,33.30
2018-02-13T05:06:17.092Z,33.33
2018-02-13T05:08:44.783Z,31.37
2018-02-13T05:11:12.390Z,34.30
2018-02-13T05:13:40.787Z,37.50
2018-02-13T05:16:08.387Z,31.60
2018-02-13T05:18:36.030Z,32.67
2018-02-13T05:21:03.656Z,31.13
2018-02-13T05:23:31.279Z,33.63
2018-02-13T05:25:58.915Z,23.40
2018-02-13T05:28:26.574Z,26.97
2018-02-13T05:30:54.200Z,32.77
2018-02-13T05:33:21.805Z,31.47
2018-02-13T05:35:49.385Z,29.73
2018-02-13T05:38:17.877Z,37.17
2018-02-13T05:40:45.562Z,38.30
2018-02-13T05:43:13.164Z,32.40
2018-02-13T05:45:40.809Z,28.37
2018-02-13T05:48:08.406Z,30.53
2018-02-13T05:50:36.053Z,27.77
2018-02-13T05:53:03.681Z,27.70
2018-02-13T05:55:31.329Z,34.97
2018-02-13T05:57:58.917Z,29.77
2018-02-13T06:00:26.529Z,28.47
2018-02-13T06:02:54.118Z,25.40
2018-02-13T06:05:21.740Z,37.53
2018-02-13T06:07:50.085Z,34.60
2018-02-13T06:10:17.670Z,31.90
2018-02-13T06:12:45.992Z,32.67
2018-02-13T06:15:13.589Z,37.27
2018-02-13T06:17:41.145Z,31.13
2018-02-13T06:20:08.810Z,28.90
2018-02-13T06:22:36.374Z,32.07
2018-02-13T06:25:04.728Z,32.17
2018-02-13T06:27:32.274Z,28.10
2018-02-13T06:29:59.905Z,30.80
2018-02-13T06:32:27.450Z,32.70
2018-02-13T06:34:55.034Z,25.63
2018-02-13T06:37:22.624Z,25.70
2018-02-13T06:39:50.258Z,26.10
2018-02-13T06:42:17.825Z,30.27
2018-02-13T06:44:45.383Z,33.97
2018-02-13T06:47:12.970Z,26.47
2018-02-13T06:49:40.512Z,32.27
2018-02-13T06:52:08.109Z,29.70
2018-02-13T06:54:36.477Z,24.37
2018-02-13T06:57:04.061Z,23.07
2018-02-13T06:59:31.649Z,23.93
2018-02-13T07:01:59.246Z,28.23
2018-02-13T07:04:27.607Z,27.83
2018-02-13T07:06:55.251Z,30.17
2018-02-13T07:09:22.837Z,27.47
2018-02-13T07:11:50.567Z,28.77
2018-02-13T07:14:18.222Z,28.87
2018-02-13T07:16:45.817Z,25.27
2018-02-13T07:19:13.434Z,34.27
2018-02-13T07:21:41.054Z,29.57
2018-02-13T07:24:08.784Z,38.23
2018-02-13T07:26:36.456Z,26.50
2018-02-13T07:29:04.019Z,21.67
2018-02-13T07:31:31.650Z,25.70
2018-02-13T07:33:59.264Z,18.53
2018-02-13T07:36:27.797Z,29.80
2018-02-13T07:38:55.425Z,24.03
2018-02-13T07:41:23.068Z,57.27
2018-02-13T07:43:50.686Z,35.87
2018-02-13T07:46:18.299Z,30.60
2018-02-13T07:48:45.983Z,28.27
2018-02-13T07:51:13.646Z,26.57
2018-02-13T07:53:41.349Z,22.37
2018-02-13T07:56:08.991Z,24.87
2018-02-13T07:58:36.662Z,24.20
2018-02-13T08:01:04.255Z,28.57
2018-02-13T08:03:31.953Z,34.80
2018-02-13T08:05:59.526Z,33.70
2018-02-13T08:08:27.229Z,32.67
2018-02-13T08:10:54.847Z,28.70
2018-02-13T08:13:22.505Z,27.57
2018-02-13T08:15:50.246Z,22.77
2018-02-13T08:18:17.943Z,23.07
2018-02-13T08:20:45.555Z,20.40
2018-02-13T08:23:13.206Z,19.33
2018-02-13T08:25:40.926Z,31.03
2018-02-13T08:28:08.583Z,24.23
2018-02-13T08:30:36.221Z,16.93
2018-02-13T08:33:03.849Z,17.63
2018-02-13T08:35:32.257Z,16.97
2018-02-13T08:37:59.852Z,16.37
2018-02-13T08:40:27.445Z,17.67
2018-02-13T08:42:55.857Z,14.50
2018-02-13T08:45:23.544Z,15.77
2018-02-13T08:47:51.146Z,17.27
2018-02-13T08:50:19.557Z,15.37
2018-02-13T08:52:47.238Z,15.63
2018-02-13T08:55:14.887Z,16.93
2018-02-13T08:57:42.616Z,14.47
2018-02-13T09:00:10.868Z,16.63
2018-02-13T09:02:39.323Z,14.77
2018-02-13T09:05:06.963Z,23.40
2018-02-13T09:07:34.521Z,13.83
2018-02-13T09:10:02.137Z,16.63
2018-02-13T09:12:29.768Z,13.73
2018-02-13T09:14:57.500Z,13.50
2018-02-13T09:17:25.272Z,12.77
2018-02-13T09:22:46.735Z,15.97
2018-02-13T09:25:14.521Z,12.50
2018-02-13T09:27:43.216Z,12.60
2018-02-13T09:30:11.547Z,12.77
2018-02-13T09:32:47.820Z,14.57
2018-02-13T09:35:16.753Z,14.17
2018-02-13T09:37:45.678Z,15.70
2018-02-13T09:40:18.152Z,14.07
2018-02-13T09:42:47.440Z,13.53
2018-02-13T09:45:15.344Z,16.90
2018-02-13T09:47:44.377Z,14.00
2018-02-13T09:50:15.506Z,17.60
2018-02-13T09:52:43.536Z,17.97
2018-02-13T09:55:31.900Z,15.17
2018-02-13T09:58:00.543Z,16.00
2018-02-13T10:00:29.833Z,15.47
2018-02-13T10:03:07.354Z,13.40
2018-02-13T10:05:42.618Z,16.23
2018-02-13T10:19:43.777Z,41.57
2018-02-13T10:22:12.187Z,17.27
2018-02-13T10:24:39.961Z,105.50
2018-02-13T10:27:07.752Z,23.07
2018-02-13T10:29:35.503Z,19.67
2018-02-13T10:32:03.292Z,34.77
2018-02-13T10:34:31.069Z,19.73
2018-02-13T10:36:59.559Z,21.40
2018-02-13T10:39:27.273Z,46.13
2018-02-13T10:41:54.881Z,20.47
2018-02-13T10:44:22.647Z,25.53
2018-02-13T10:46:50.345Z,21.63
2018-02-13T10:49:18.090Z,25.50
2018-02-13T10:51:45.875Z,22.90
2018-02-13T10:54:13.607Z,21.15
2018-02-13T10:56:41.307Z,19.15
2018-02-13T10:59:08.941Z,22.25
2018-02-13T11:01:39.097Z,20.70
2018-02-13T11:04:06.815Z,19.67
2018-02-13T11:06:34.451Z,20.67
2018-02-13T11:09:03.070Z,21.43
2018-02-13T11:11:30.884Z,18.77
2018-02-13T11:13:58.679Z,20.70
2018-02-13T11:16:27.102Z,21.10
2018-02-13T11:18:55.537Z,17.30
2018-02-13T11:21:23.259Z,17.00
2018-02-13T11:23:50.927Z,50.13
2018-02-13T11:26:18.557Z,21.63
2018-02-13T11:28:46.272Z,14.67
2018-02-13T11:31:14.018Z,16.03
2018-02-13T11:33:41.635Z,14.60
2018-02-13T11:36:09.319Z,12.73
2018-02-13T11:38:37.013Z,13.43
2018-02-13T11:41:04.737Z,12.03
2018-02-13T11:43:32.380Z,10.77
2018-02-13T11:45:59.982Z,12.67
2018-02-13T11:48:28.394Z,12.70
2018-02-13T11:50:56.047Z,11.53
2018-02-13T11:53:23.752Z,11.87
2018-02-13T11:55:51.410Z,15.67
2018-02-13T11:58:20.445Z,13.17
2018-02-13T12:00:48.100Z,13.73
2018-02-13T12:03:15.782Z,13.40
2018-02-13T12:05:43.496Z,10.60
2018-02-13T12:08:11.175Z,20.87
2018-02-13T12:10:39.337Z,11.57
2018-02-13T12:13:07.926Z,12.73
2018-02-13T12:15:35.543Z,11.33
2018-02-13T12:18:03.358Z,9.17
2018-02-13T12:20:31.857Z,12.63
2018-02-13T12:22:59.515Z,11.90
2018-02-13T12:25:41.182Z,8.43
2018-02-13T12:28:08.861Z,5.63
2018-02-13T12:30:37.301Z,6.07
2018-02-13T12:33:05.004Z,8.17
2018-02-13T12:35:33.359Z,3.93
2018-02-13T12:38:01.174Z,5.27
2018-02-13T12:40:28.784Z,2.70
2018-02-13T12:42:57.180Z,4.63
2018-02-13T12:45:25.766Z,4.53
2018-02-13T12:47:53.471Z,5.77
2018-02-13T12:50:21.208Z,6.30
2018-02-13T12:52:48.827Z,6.03
2018-02-13T12:55:16.578Z,6.30
2018-02-13T12:57:44.211Z,7.00
2018-02-13T13:00:11.879Z,5.43
2018-02-13T13:02:39.768Z,6.90
2018-02-13T13:05:07.493Z,4.87
2018-02-13T13:07:35.173Z,5.13
2018-02-13T13:10:02.847Z,8.43
2018-02-13T13:12:30.408Z,11.83
2018-02-13T13:14:58.075Z,20.83
2018-02-13T13:17:25.703Z,10.70
2018-02-13T13:19:54.169Z,12.53
2018-02-13T13:22:21.795Z,11.43
2018-02-13T13:24:49.493Z,9.23
2018-02-13T13:27:17.185Z,10.67
2018-02-13T13:29:45.817Z,14.60
2018-02-13T13:32:13.722Z,14.07
2018-02-13T13:34:41.350Z,15.47
2018-02-13T13:37:08.967Z,13.93
2018-02-13T13:39:37.385Z,16.63
2018-02-13T13:42:04.986Z,15.33
2018-02-13T13:44:32.681Z,18.90
2018-02-13T13:47:00.310Z,15.73
2018-02-13T13:49:27.969Z,16.97
2018-02-13T13:51:55.671Z,17.33
2018-02-13T13:54:23.226Z,16.33
2018-02-13T13:56:51.906Z,14.20
2018-02-13T13:59:19.705Z,21.23
2018-02-13T14:01:47.444Z,16.23
2018-02-13T14:04:15.297Z,15.00
2018-02-13T14:06:43.733Z,15.43
2018-02-13T14:09:11.379Z,13.10
2018-02-13T14:11:39.075Z,14.90
2018-02-13T14:14:06.739Z,12.70
2018-02-13T14:16:34.478Z,10.83
2018-02-13T14:19:03.054Z,14.03
2018-02-13T14:21:30.790Z,8.83
2018-02-13T14:23:59.188Z,8.03
2018-02-13T14:26:26.970Z,10.23
2018-02-13T14:28:54.543Z,8.87
2018-02-13T14:31:22.186Z,9.37
2018-02-13T14:33:49.826Z,9.10
2018-02-13T14:36:18.228Z,13.70
2018-02-13T14:38:45.934Z,10.47
2018-02-13T14:41:13.542Z,13.30
2018-02-13T14:43:41.162Z,11.70
2018-02-13T14:46:09.555Z,12.87
2018-02-13T14:48:38.903Z,11.67
2018-02-13T14:51:06.540Z,11.23
2018-02-13T14:53:34.284Z,16.87
2018-02-13T14:56:01.872Z,12.70
2018-02-13T14:58:29.477Z,12.10
2018-02-13T15:00:57.223Z,19.10
2018-02-13T15:03:24.889Z,14.40
2018-02-13T15:05:52.482Z,19.20
2018-02-13T15:08:20.906Z,24.03
2018-02-13T15:10:48.569Z,19.70
2018-02-13T15:13:16.169Z,22.00
2018-02-13T15:15:45.035Z,20.23
2018-02-13T15:18:16.260Z,14.87
2018-02-13T15:20:43.873Z,12.00
2018-02-13T15:23:11.484Z,14.43
2018-02-13T15:25:39.156Z,15.30
2018-02-13T15:28:06.775Z,13.67
2018-02-13T15:30:34.425Z,12.37
2018-02-13T15:33:02.046Z,12.03
2018-02-13T15:35:29.667Z,11.50
2018-02-13T15:37:57.317Z,10.50
2018-02-13T15:40:25.746Z,15.63
2018-02-13T15:42:53.351Z,12.50
2018-02-13T15:45:21.889Z,11.47
2018-02-13T15:47:49.506Z,11.63
2018-02-13T15:50:17.925Z,11.30
2018-02-13T15:52:45.552Z,22.37
2018-02-13T15:55:13.160Z,23.60
2018-02-13T15:57:41.566Z,13.07
2018-02-13T16:00:09.266Z,15.23
2018-02-13T16:02:36.869Z,14.77
2018-02-13T16:05:05.259Z,12.30
2018-02-13T16:07:33.630Z,24.03
2018-02-13T16:10:02.061Z,14.07
2018-02-13T16:12:29.681Z,11.50
2018-02-13T16:14:57.368Z,13.67
2018-02-13T16:17:24.949Z,13.80
2018-02-13T16:19:52.870Z,8.20
2018-02-13T16:22:20.477Z,13.50
2018-02-13T16:24:48.194Z,12.17
2018-02-13T16:27:15.865Z,14.27
2018-02-13T16:29:43.477Z,15.93
2018-02-13T16:32:11.069Z,24.00
2018-02-13T16:34:38.650Z,14.27
2018-02-13T16:37:06.269Z,11.53
2018-02-13T16:39:34.586Z,16.63
2018-02-13T16:42:02.235Z,14.23
2018-02-13T16:44:29.891Z,15.67
2018-02-13T16:46:57.594Z,12.17
2018-02-13T16:49:26.425Z,21.63
2018-02-13T16:51:54.036Z,19.33
2018-02-13T16:54:21.661Z,26.80
2018-02-13T16:56:49.957Z,19.70
2018-02-13T16:59:18.351Z,20.03
2018-02-13T17:01:45.984Z,14.73
2018-02-13T17:04:13.634Z,14.33
2018-02-13T17:06:42.106Z,15.40
2018-02-13T17:09:10.491Z,15.40
2018-02-13T17:11:38.106Z,25.10
2018-02-13T17:14:05.771Z,23.13
2018-02-13T17:16:33.949Z,28.77
2018-02-13T17:19:02.147Z,28.30
2018-02-13T17:21:30.547Z,30.93
2018-02-13T17:23:58.206Z,26.60
2018-02-13T17:26:27.068Z,20.40
2018-02-13T17:28:54.699Z,20.07
2018-02-13T17:31:22.367Z,19.03
2018-02-13T17:33:50.048Z,14.57
2018-02-13T17:36:17.714Z,19.17
2018-02-13T17:38:46.106Z,15.17
2018-02-13T17:41:13.719Z,16.87
2018-02-13T17:43:41.406Z,18.17
2018-02-13T17:46:10.018Z,14.53
2018-02-13T17:48:37.646Z,10.97
2018-02-13T17:51:05.258Z,15.77
2018-02-13T17:53:32.909Z,11.80
2018-02-13T17:56:00.527Z,13.60
2018-02-13T17:58:28.959Z,11.63
2018-02-13T18:00:56.566Z,12.17
2018-02-13T18:03:24.199Z,11.77
2018-02-13T18:05:51.809Z,15.20
2018-02-13T18:08:20.181Z,17.00
2018-02-13T18:10:48.652Z,15.13
2018-02-13T18:13:17.036Z,15.47
2018-02-13T18:15:44.780Z,17.40
2018-02-13T18:18:12.386Z,14.63
2018-02-13T18:20:40.009Z,18.77
2018-02-13T18:23:07.672Z,18.93
2018-02-13T18:25:36.120Z,19.93
2018-02-13T18:28:03.832Z,16.97
2018-02-13T18:30:31.575Z,18.50
2018-02-13T18:32:59.971Z,11.07
2018-02-13T18:35:28.382Z,16.90
2018-02-13T18:37:55.997Z,14.87
2018-02-13T18:40:23.695Z,15.37
2018-02-13T18:42:52.103Z,16.60
2018-02-13T18:45:19.717Z,16.23
2018-02-13T18:47:47.356Z,16.00
2018-02-13T18:50:15.743Z,15.90
2018-02-13T18:55:11.687Z,17.53
2018-02-13T18:57:40.120Z,19.40
2018-02-13T19:00:07.785Z,11.97
2018-02-13T19:02:35.427Z,20.60
2018-02-13T19:05:03.187Z,18.40
2018-02-13T19:07:30.871Z,21.97
2018-02-13T19:09:58.469Z,22.60
2018-02-13T19:12:26.856Z,31.30
2018-02-13T19:14:54.483Z,31.93
2018-02-13T19:17:22.156Z,28.60
2018-02-13T19:19:57.324Z,21.50
2018-02-13T19:22:24.940Z,24.80
2018-02-13T19:24:52.469Z,21.07
2018-02-13T19:27:20.037Z,18.70
2018-02-13T19:29:47.565Z,19.93
2018-02-13T19:32:15.129Z,20.00
2018-02-13T19:34:42.667Z,22.30
2018-02-13T19:37:10.987Z,24.30
2018-02-13T19:39:38.525Z,24.50
2018-02-13T19:42:06.076Z,24.93
2018-02-13T19:44:33.604Z,24.57
2018-02-13T19:47:01.925Z,23.93
2018-02-13T19:49:29.465Z,20.03
2018-02-13T19:51:57.029Z,25.67
2018-02-13T19:54:24.572Z,24.80
2018-02-13T19:56:52.129Z,24.53
2018-02-13T19:59:20.434Z,25.20
2018-02-13T20:01:48.009Z,22.67
2018-02-13T20:04:15.535Z,25.50
2018-02-13T20:06:43.074Z,21.03
2018-02-13T20:09:11.384Z,23.13
2018-02-13T20:11:38.919Z,24.53
2018-02-13T20:14:07.232Z,22.13
2018-02-13T20:16:34.761Z,17.47
2018-02-13T20:19:02.315Z,19.13
2018-02-13T20:21:29.841Z,22.70
2018-02-13T20:23:57.408Z,22.70
2018-02-13T20:26:25.705Z,21.83
2018-02-13T20:28:53.256Z,22.07
2018-02-13T20:31:21.551Z,24.17
2018-02-13T20:33:49.105Z,19.07
2018-02-13T20:36:16.628Z,18.80
2018-02-13T20:38:44.188Z,26.57
2018-02-13T20:41:11.720Z,27.70
2018-02-13T20:43:39.289Z,24.77
2018-02-13T20:46:06.817Z,18.57
2018-02-13T20:48:34.384Z,25.60
2018-02-13T20:51:01.915Z,22.03
2018-02-13T20:53:29.475Z,19.27
2018-02-13T20:55:57.009Z,23.43
2018-02-13T20:58:24.560Z,21.10
2018-02-13T21:00:52.085Z,21.83
2018-02-13T21:03:19.633Z,20.87
2018-02-13T21:05:47.169Z,25.40
2018-02-13T21:08:14.720Z,33.20
2018-02-13T21:10:42.259Z,28.33
2018-02-13T21:13:10.632Z,29.57
2018-02-13T21:15:38.970Z,29.03
2018-02-13T21:18:06.625Z,27.27
2018-02-13T21:20:34.233Z,27.33
2018-02-13T21:23:02.608Z,25.57
2018-02-13T21:25:30.241Z,27.40
2018-02-13T21:27:57.840Z,22.73
2018-02-13T21:30:25.553Z,28.80
2018-02-13T21:32:53.382Z,22.30
2018-02-13T21:35:20.992Z,26.77
2018-02-13T21:37:48.678Z,21.40
2018-02-13T21:40:17.051Z,24.93
2018-02-13T21:42:45.419Z,25.70
2018-02-13T21:45:13.888Z,22.63
2018-02-13T21:47:42.046Z,21.80
2018-02-13T21:50:09.764Z,23.30
2018-02-13T21:52:37.440Z,24.83
2018-02-13T21:55:05.040Z,18.33
2018-02-13T21:57:32.634Z,25.67
2018-02-13T22:00:00.308Z,18.90
2018-02-13T22:02:27.926Z,19.67
2018-02-13T22:04:55.678Z,23.33
2018-02-13T22:07:23.270Z,20.47
2018-02-13T22:09:50.999Z,25.23
2018-02-13T22:12:18.623Z,27.37
2018-02-13T22:14:46.224Z,19.77
2018-02-13T22:17:13.869Z,22.33
2018-02-13T22:19:41.473Z,22.43
2018-02-13T22:22:09.935Z,24.90
2018-02-13T22:24:37.554Z,27.43
2018-02-13T22:27:05.180Z,23.23
2018-02-13T22:29:33.599Z,21.70
2018-02-13T22:32:01.279Z,30.20
2018-02-13T22:34:28.921Z,23.07
2018-02-13T22:36:56.559Z,23.10
2018-02-13T22:39:24.252Z,24.73
2018-02-13T22:41:51.978Z,21.77
2018-02-13T22:44:19.580Z,25.17
2018-02-13T22:46:47.251Z,21.17
2018-02-13T22:49:14.923Z,22.83
2018-02-13T22:51:43.430Z,24.17
2018-02-13T22:54:11.892Z,23.50
2018-02-13T22:56:40.348Z,29.23
2018-02-13T22:59:07.980Z,23.37
2018-02-13T23:01:35.676Z,28.87
2018-02-13T23:04:03.348Z,21.97
2018-02-13T23:06:30.994Z,23.50
2018-02-13T23:08:58.615Z,23.73
2018-02-13T23:11:26.264Z,28.17
2018-02-13T23:13:55.530Z,25.93
2018-02-13T23:16:23.121Z,26.50
2018-02-13T23:18:50.764Z,38.83
2018-02-13T23:21:19.144Z,24.63
2018-02-13T23:23:47.507Z,28.43
2018-02-13T23:26:15.730Z,25.23
2018-02-13T23:28:43.346Z,24.33
2018-02-13T23:31:11.031Z,26.27
2018-02-13T23:33:39.453Z,25.10
2018-02-13T23:36:07.137Z,20.83
2018-02-13T23:38:34.762Z,24.30
2018-02-13T23:41:02.469Z,33.07
2018-02-13T23:43:30.097Z,19.80
2018-02-13T23:45:57.760Z,25.13
2018-02-13T23:48:25.371Z,22.70
2018-02-13T23:50:52.971Z,29.77
2018-02-13T23:53:20.624Z,33.57
2018-02-13T23:55:48.315Z,23.80
2018-02-13T23:58:16.748Z,21.30
